11 a 19/2 - Nuevo ingreso de aire tropical C y N

luciano sl sf
Mensajes: 3118
Registrado: Mar Dic 11, 2012 6:29 pm
Ubicación: San Lorenzo, Santa Fé

Re: 11 a 19/2 - Nuevo ingreso de aire tropical C y N

Mensaje por luciano sl sf » Jue Feb 13, 2020 10:58 pm

"Chispea" por acá. Muy aburrido todo. Veremos si ganan algo de fuerza los chapas del oeste.

Avatar de Usuario
Diecha
Mensajes: 9857
Registrado: Jue Ago 25, 2011 9:31 pm
Ubicación: Lomas de Zamora

Re: 11 a 19/2 - Nuevo ingreso de aire tropical C y N

Mensaje por Diecha » Jue Feb 13, 2020 11:05 pm

Imagen

Imagen
Spoiler
Mostrar
Imagen
Imagen
Imagen
Imagen
Imagen
Imagen
Imagen
Imagen
Imagen
Imagen
Imagen
Imagen
Imagen
Imagen
Imagen
Última edición por Diecha el Vie Feb 14, 2020 12:17 am, editado 1 vez en total.

Avatar de Usuario
maxi_rosario_eche21
Mensajes: 9306
Registrado: Mié Sep 23, 2009 1:55 am
Ubicación: Rosario, Argentina
Contactar:

Re: 11 a 19/2 - Nuevo ingreso de aire tropical C y N

Mensaje por maxi_rosario_eche21 » Jue Feb 13, 2020 11:17 pm

Se escuchan truenos en el aero

Avatar de Usuario
Ale de Castelar
Mensajes: 24169
Registrado: Sab Mar 03, 2012 12:25 pm
Ubicación: Caballito

Re: 11 a 19/2 - Nuevo ingreso de aire tropical C y N

Mensaje por Ale de Castelar » Jue Feb 13, 2020 11:49 pm

Chaparroneo en Palermo.

Unas gotas aca en Boedo. Mala suerte. Son chapas chatos pero por ahora pasan por el sur y por el rio tomaron fuerza

luciano sl sf
Mensajes: 3118
Registrado: Mar Dic 11, 2012 6:29 pm
Ubicación: San Lorenzo, Santa Fé

Re: 11 a 19/2 - Nuevo ingreso de aire tropical C y N

Mensaje por luciano sl sf » Vie Feb 14, 2020 12:00 am

2do chaparrón fuerte en los últimos 15 min. Refucilos esporádicos, pesado y nada de viento.

Avatar de Usuario
Ezequiel15
Mensajes: 10821
Registrado: Lun Ene 23, 2012 4:18 pm
Ubicación: Ramos Mejia, I Casanova o Monserrat
Contactar:

Re: 11 a 19/2 - Nuevo ingreso de aire tropical C y N

Mensaje por Ezequiel15 » Vie Feb 14, 2020 12:03 am

Llueve en Ramos
In GFS we don't trust
Los datos que escribo en Clima siempre son de OCBA.
https://infometeoba.blogspot.com.ar/

Avatar de Usuario
diegotelesa
Mensajes: 1380
Registrado: Mié Jul 24, 2013 10:48 pm
Ubicación: Ramos Mejía

Re: 11 a 19/2 - Nuevo ingreso de aire tropical C y N

Mensaje por diegotelesa » Vie Feb 14, 2020 12:03 am

Chaparronazo!!

Avatar de Usuario
Ezequiel1995
Mensajes: 684
Registrado: Mar Nov 12, 2019 4:50 pm
Ubicación: Merlo, Buenos Aires
Contactar:

Re: 11 a 19/2 - Nuevo ingreso de aire tropical C y N

Mensaje por Ezequiel1995 » Vie Feb 14, 2020 12:04 am

Nada por acá (por ahora)

Avatar de Usuario
Fedex
Mensajes: 2631
Registrado: Jue Jul 17, 2014 3:30 pm
Ubicación: Villa Ballester, San Martin, Buenos Aires
Contactar:

Re: 11 a 19/2 - Nuevo ingreso de aire tropical C y N

Mensaje por Fedex » Vie Feb 14, 2020 12:15 am

Intensos rayos sobre el Río de la Plata. Chaparronea sobre CABA, al Sur.

A esperar lo que viene del oeste.
Cada vez que se superan los 24°C de Td, un gatito renace.

#MuerteALasLineas

El corazón late y es suficiente

Avatar de Usuario
Diecha
Mensajes: 9857
Registrado: Jue Ago 25, 2011 9:31 pm
Ubicación: Lomas de Zamora

Re: 11 a 19/2 - Nuevo ingreso de aire tropical C y N

Mensaje por Diecha » Vie Feb 14, 2020 12:16 am

- San Fernando 00 hs: SADF 140300Z 19002KT CAVOK 25/22 Q1008
- Aeroparque 00 hs: SABE 140300Z 11002KT 9999 FEW050TCU BKN100 26/21 Q1008
- Ezeiza 00 hs: SAEZ 140300Z 02004KT CAVOK 26/19 Q1007

Imagen
Imagen
Última edición por Diecha el Vie Feb 14, 2020 12:22 am, editado 1 vez en total.

Responder